Time;durP1;ratioP1;P1;durP2;ratioP2;P2;SDS_P1;SDS_P2;PMS_P1;PMS_P2;Temp;Humidity;BMP_temperature;BMP_pressure;BME280_temperature;BME280_humidity;BME280_pressure;Samples;Min_cycle;Max_cycle;Signal;HPM_P1;HPM_P2
2023/03/09 00:00:57;;;;;;;63.17;30.67;;;1.10;99.90;;;;;;4873329;29;37683;-78
2023/03/09 00:03:23;;;;;;;59.67;30.67;;;1.10;99.90;;;;;;4886438;29;38449;-78
2023/03/09 00:05:57;;;;;;;62.07;31.03;;;1.10;99.90;;;;;;4889305;29;38485;-78
2023/03/09 00:08:24;;;;;;;63.33;31.20;;;1.10;99.90;;;;;;4867547;29;38043;-77
2023/03/09 00:10:52;;;;;;;60.80;31.10;;;1.20;99.90;;;;;;4863309;29;37977;-78
2023/03/09 00:13:22;;;;;;;69.03;33.10;;;1.20;99.90;;;;;;4872077;29;38451;-77
2023/03/09 00:15:51;;;;;;;61.73;31.10;;;1.20;99.90;;;;;;4872633;29;38598;-77
2023/03/09 00:18:18;;;;;;;61.87;31.53;;;1.20;99.90;;;;;;4869846;29;37911;-77
2023/03/09 00:20:44;;;;;;;60.53;30.97;;;1.20;99.90;;;;;;4873752;29;38655;-77
2023/03/09 00:23:11;;;;;;;62.53;30.50;;;1.30;99.90;;;;;;4897141;29;38079;-77
2023/03/09 00:25:37;;;;;;;61.80;29.57;;;1.30;99.90;;;;;;4883134;29;37097;-77
2023/03/09 00:28:04;;;;;;;57.50;28.40;;;1.20;99.90;;;;;;4884743;29;37620;-77
2023/03/09 00:30:33;;;;;;;63.13;32.23;;;1.30;99.90;;;;;;4867383;29;39595;-78
2023/03/09 00:32:59;;;;;;;55.83;29.10;;;1.30;99.90;;;;;;4865324;29;38291;-78
2023/03/09 00:35:25;;;;;;;61.17;29.33;;;1.30;99.90;;;;;;4873376;29;38652;-76
2023/03/09 00:37:51;;;;;;;58.00;31.27;;;1.30;99.90;;;;;;4888023;29;37425;-76
2023/03/09 00:40:17;;;;;;;59.07;29.23;;;1.30;99.90;;;;;;4868419;29;38917;-76
2023/03/09 00:42:44;;;;;;;59.33;31.63;;;1.30;99.90;;;;;;4867456;29;39262;-76
2023/03/09 00:45:12;;;;;;;52.60;29.27;;;1.30;99.90;;;;;;4867897;29;37371;-76
2023/03/09 00:47:39;;;;;;;65.00;32.43;;;1.40;99.90;;;;;;4874729;29;37496;-76
2023/03/09 00:50:06;;;;;;;55.97;31.07;;;1.40;99.90;;;;;;4872462;29;39144;-76
2023/03/09 00:52:33;;;;;;;57.10;30.30;;;1.40;99.90;;;;;;4887034;29;37215;-77
2023/03/09 00:54:59;;;;;;;56.27;30.50;;;1.30;99.90;;;;;;4875751;29;37394;-78
2023/03/09 00:57:26;;;;;;;53.13;29.50;;;1.40;99.90;;;;;;4877217;29;38839;-78
2023/03/09 00:59:53;;;;;;;56.60;31.30;;;1.40;99.90;;;;;;4882374;29;37672;-78
2023/03/09 01:02:20;;;;;;;54.97;30.53;;;1.40;99.90;;;;;;4875614;29;38232;-77
2023/03/09 01:04:46;;;;;;;54.63;29.80;;;1.40;99.90;;;;;;4873712;29;37590;-78
2023/03/09 01:07:13;;;;;;;53.03;30.17;;;1.30;99.90;;;;;;4869683;29;39961;-78
2023/03/09 01:09:39;;;;;;;55.07;30.83;;;1.40;99.90;;;;;;4886153;29;38748;-78
2023/03/09 01:12:05;;;;;;;53.27;30.37;;;1.40;99.90;;;;;;4875441;29;37810;-78
2023/03/09 01:14:32;;;;;;;49.57;28.80;;;1.40;99.90;;;;;;4865333;29;37033;-78
2023/03/09 01:16:58;;;;;;;47.07;28.00;;;1.40;99.90;;;;;;4891398;29;38330;-79
2023/03/09 01:19:25;;;;;;;49.80;28.67;;;1.30;99.90;;;;;;4873234;29;39198;-79
2023/03/09 01:21:51;;;;;;;52.70;28.90;;;1.40;99.90;;;;;;4872381;29;37385;-80
2023/03/09 01:24:17;;;;;;;51.10;28.33;;;1.30;99.90;;;;;;4886374;29;38050;-79
2023/03/09 01:26:43;;;;;;;50.07;27.60;;;1.30;99.90;;;;;;4873240;29;37936;-79
2023/03/09 01:29:10;;;;;;;52.03;29.17;;;1.30;99.90;;;;;;4886985;29;38773;-79
2023/03/09 01:31:36;;;;;;;47.83;27.83;;;1.30;99.90;;;;;;4894286;29;38077;-79
2023/03/09 01:34:02;;;;;;;44.37;27.17;;;1.30;99.90;;;;;;4889447;29;37948;-79
2023/03/09 01:36:28;;;;;;;53.20;28.97;;;1.30;99.90;;;;;;4896408;29;38942;-79
2023/03/09 01:38:54;;;;;;;54.57;29.10;;;1.30;99.90;;;;;;4877187;29;39200;-79
2023/03/09 01:41:22;;;;;;;45.50;26.20;;;1.30;99.90;;;;;;4894188;29;38012;-79
2023/03/09 01:43:50;;;;;;;49.23;27.90;;;1.30;99.90;;;;;;4888732;29;36046;-79
2023/03/09 01:46:23;;;;;;;45.47;27.37;;;1.30;99.90;;;;;;4888744;29;38658;-79
2023/03/09 01:48:57;;;;;;;46.67;25.83;;;1.40;99.90;;;;;;4883848;29;38252;-79
2023/03/09 01:51:27;;;;;;;49.87;27.83;;;1.40;99.90;;;;;;4892522;29;39607;-79
2023/03/09 01:53:53;;;;;;;48.67;28.17;;;1.40;99.90;;;;;;4891401;29;38967;-80
2023/03/09 01:56:23;;;;;;;45.50;28.07;;;1.40;99.90;;;;;;4892607;29;40621;-80
2023/03/09 01:58:53;;;;;;;48.10;28.03;;;1.40;99.90;;;;;;4884529;29;38518;-78
2023/03/09 02:04:00;;;;;;;46.30;26.47;;;1.50;99.90;;;;;;4906468;28;20053;-77
2023/03/09 02:06:26;;;;;;;44.87;25.47;;;1.50;99.90;;;;;;4910290;29;46729;-78
2023/03/09 02:09:06;;;;;;;55.70;29.90;;;1.50;99.90;;;;;;4928860;28;39852;-78
2023/03/09 02:11:33;;;;;;;49.50;27.43;;;1.50;99.90;;;;;;4913305;29;46974;-78
2023/03/09 02:14:00;;;;;;;51.57;28.63;;;1.50;99.90;;;;;;4915963;29;36162;-78
2023/03/09 02:16:26;;;;;;;51.67;27.80;;;1.50;99.90;;;;;;4914261;29;38006;-78
2023/03/09 02:18:52;;;;;;;46.03;27.00;;;1.50;99.90;;;;;;4931275;28;40483;-78
2023/03/09 02:21:27;;;;;;;45.27;26.50;;;1.50;99.90;;;;;;4915045;28;37571;-77
2023/03/09 02:24:14;;;;;;;46.73;26.90;;;1.50;99.90;;;;;;4932655;28;37891;-78
2023/03/09 02:26:53;;;;;;;47.53;27.93;;;1.50;99.90;;;;;;4910903;28;47201;-76
2023/03/09 02:29:20;;;;;;;50.80;28.03;;;1.50;99.90;;;;;;4907269;28;37379;-80
2023/03/09 02:31:46;;;;;;;48.50;27.27;;;1.50;99.90;;;;;;4936826;28;39040;-77
2023/03/09 02:34:12;;;;;;;47.83;27.40;;;1.60;99.90;;;;;;4914609;29;35937;-77
2023/03/09 02:36:39;;;;;;;44.47;26.43;;;1.60;99.90;;;;;;4907074;29;37752;-79
2023/03/09 02:39:23;;;;;;;48.97;27.87;;;1.50;99.90;;;;;;4914969;28;37851;-78
2023/03/09 02:41:50;;;;;;;49.97;28.73;;;1.50;99.90;;;;;;4932395;28;38839;-79
2023/03/09 02:44:16;;;;;;;48.50;27.77;;;1.50;99.90;;;;;;4931499;29;38459;-78
2023/03/09 02:46:42;;;;;;;46.60;27.20;;;1.50;99.90;;;;;;4936832;28;38257;-79
2023/03/09 02:49:08;;;;;;;45.73;25.93;;;1.60;99.90;;;;;;4928458;28;39293;-79
2023/03/09 02:51:34;;;;;;;42.43;25.97;;;1.50;99.90;;;;;;4918108;29;37446;-78
2023/03/09 02:54:01;;;;;;;41.40;24.23;;;1.60;99.90;;;;;;4932232;28;37428;-78
2023/03/09 02:56:27;;;;;;;45.97;25.90;;;1.50;99.90;;;;;;4930436;28;49603;-77
2023/03/09 02:58:53;;;;;;;43.53;26.87;;;1.50;99.90;;;;;;4931751;28;40197;-78
2023/03/09 03:01:19;;;;;;;49.57;26.30;;;1.50;99.90;;;;;;4933393;28;38419;-78
2023/03/09 03:03:45;;;;;;;47.87;24.57;;;1.50;99.90;;;;;;4913019;29;36205;-78
2023/03/09 03:06:11;;;;;;;47.07;25.77;;;1.50;99.90;;;;;;4910127;29;37408;-78
2023/03/09 03:08:37;;;;;;;43.40;24.13;;;1.50;99.90;;;;;;4914904;29;37868;-79
2023/03/09 03:11:03;;;;;;;42.50;23.43;;;1.50;99.90;;;;;;4915969;29;38726;-78
2023/03/09 03:13:29;;;;;;;40.73;23.47;;;1.50;99.90;;;;;;4916216;29;36585;-80
2023/03/09 03:16:00;;;;;;;36.67;22.23;;;1.50;99.90;;;;;;4910792;29;39174;-79
2023/03/09 03:18:26;;;;;;;47.10;24.67;;;1.50;99.90;;;;;;4908474;29;37790;-79
2023/03/09 03:20:52;;;;;;;37.30;22.27;;;1.50;99.90;;;;;;4901366;29;38526;-79
2023/03/09 03:23:19;;;;;;;40.47;22.80;;;1.50;99.90;;;;;;4905717;28;37452;-79
2023/03/09 03:25:45;;;;;;;45.37;25.13;;;1.50;99.90;;;;;;4909245;29;38372;-79
2023/03/09 03:28:11;;;;;;;39.20;23.13;;;1.50;99.90;;;;;;4909714;29;37874;-79
2023/03/09 03:30:37;;;;;;;40.30;22.00;;;1.50;99.90;;;;;;4907120;29;37651;-79
2023/03/09 03:33:03;;;;;;;37.80;22.87;;;1.50;99.90;;;;;;4909609;29;37358;-79
2023/03/09 03:35:29;;;;;;;37.40;20.87;;;1.50;99.90;;;;;;4908176;29;38564;-79
2023/03/09 03:37:55;;;;;;;39.37;22.37;;;1.50;99.90;;;;;;4918046;29;38733;-78
2023/03/09 03:40:22;;;;;;;37.23;22.83;;;1.60;99.90;;;;;;4913486;29;36686;-79
2023/03/09 03:42:48;;;;;;;38.30;21.50;;;1.50;99.90;;;;;;4914954;28;37586;-79
2023/03/09 03:45:14;;;;;;;36.43;21.10;;;1.50;99.90;;;;;;4916302;29;38524;-79
2023/03/09 03:47:41;;;;;;;39.07;23.27;;;1.50;99.90;;;;;;4911278;29;38676;-79
2023/03/09 03:50:07;;;;;;;37.43;22.03;;;1.50;99.90;;;;;;4912428;29;39570;-79
2023/03/09 03:52:34;;;;;;;45.10;23.57;;;1.50;99.90;;;;;;4908231;29;37704;-79
2023/03/09 03:55:00;;;;;;;38.00;22.53;;;1.50;99.90;;;;;;4912158;29;39632;-79
2023/03/09 03:57:26;;;;;;;35.97;22.27;;;1.50;99.90;;;;;;4907441;29;37762;-80
2023/03/09 03:59:52;;;;;;;37.83;21.83;;;1.50;99.90;;;;;;4907745;29;39746;-79
2023/03/09 04:02:18;;;;;;;36.97;21.07;;;1.50;99.90;;;;;;4907410;29;36133;-79
2023/03/09 04:04:44;;;;;;;36.87;21.77;;;1.50;99.90;;;;;;4910793;29;37366;-80
2023/03/09 04:07:10;;;;;;;32.87;20.20;;;1.60;99.90;;;;;;4915858;29;37705;-79
2023/03/09 04:09:36;;;;;;;34.47;20.93;;;1.60;99.90;;;;;;4912513;29;37616;-79
2023/03/09 04:12:02;;;;;;;36.97;21.53;;;1.60;99.90;;;;;;4917229;29;36621;-79
2023/03/09 04:14:32;;;;;;;37.43;20.93;;;1.60;99.90;;;;;;4913994;29;37600;-79
2023/03/09 04:16:58;;;;;;;36.63;21.23;;;1.60;99.90;;;;;;4915642;29;37453;-79
2023/03/09 04:19:25;;;;;;;39.43;21.87;;;1.60;99.90;;;;;;4907025;29;37663;-79
2023/03/09 04:21:51;;;;;;;37.00;21.70;;;1.60;99.90;;;;;;4917239;29;36458;-80
2023/03/09 04:24:17;;;;;;;42.53;22.73;;;1.60;99.90;;;;;;4913501;29;37741;-79
2023/03/09 04:26:43;;;;;;;40.00;22.63;;;1.60;99.90;;;;;;4910812;29;38296;-80
2023/03/09 04:29:09;;;;;;;35.57;21.10;;;1.60;99.90;;;;;;4906799;29;39668;-79
2023/03/09 04:31:35;;;;;;;36.30;22.13;;;1.60;99.90;;;;;;4901290;29;37148;-80
2023/03/09 04:34:01;;;;;;;34.83;22.07;;;1.60;99.90;;;;;;4905450;29;39792;-80
2023/03/09 04:36:27;;;;;;;37.93;22.43;;;1.70;99.90;;;;;;4908611;29;38609;-77
2023/03/09 04:38:53;;;;;;;39.30;22.83;;;1.60;99.90;;;;;;4902062;29;37965;-79
2023/03/09 04:41:20;;;;;;;38.43;22.50;;;1.60;99.90;;;;;;4912489;29;38328;-80
2023/03/09 04:43:46;;;;;;;39.87;22.03;;;1.60;99.90;;;;;;4907443;29;39218;-80
2023/03/09 04:46:12;;;;;;;35.50;21.80;;;1.60;99.90;;;;;;4910617;29;38797;-79
2023/03/09 04:48:38;;;;;;;34.50;20.90;;;1.60;99.90;;;;;;4907915;29;37791;-80
2023/03/09 04:51:05;;;;;;;37.53;22.67;;;1.60;99.90;;;;;;4909168;29;37356;-80
2023/03/09 04:53:31;;;;;;;36.70;22.80;;;1.70;99.90;;;;;;4903974;29;38335;-79
2023/03/09 04:55:57;;;;;;;41.97;23.43;;;1.60;99.90;;;;;;4904377;29;38398;-79
2023/03/09 04:58:23;;;;;;;36.70;22.07;;;1.60;99.90;;;;;;4914762;29;39719;-79
2023/03/09 05:00:49;;;;;;;42.17;23.37;;;1.60;99.90;;;;;;4915022;29;36079;-79
2023/03/09 05:03:15;;;;;;;40.60;23.77;;;1.60;99.90;;;;;;4913658;29;39581;-80
2023/03/09 05:05:41;;;;;;;39.27;23.00;;;1.60;99.90;;;;;;4911684;29;37234;-80
2023/03/09 05:08:07;;;;;;;43.17;24.20;;;1.60;99.90;;;;;;4909000;29;39247;-79
2023/03/09 05:10:33;;;;;;;40.37;23.37;;;1.60;99.90;;;;;;4899645;29;36147;-79
2023/03/09 05:12:59;;;;;;;42.53;23.50;;;1.60;99.90;;;;;;4896439;29;39229;-79
2023/03/09 05:15:25;;;;;;;40.50;23.07;;;1.60;99.90;;;;;;4897035;29;36794;-77
2023/03/09 05:17:51;;;;;;;43.23;23.87;;;1.60;99.90;;;;;;4906038;29;39085;-77
2023/03/09 05:20:17;;;;;;;39.10;22.40;;;1.70;99.90;;;;;;4908593;29;38091;-77
2023/03/09 05:22:43;;;;;;;36.97;22.43;;;1.70;99.90;;;;;;4893149;29;37578;-78
2023/03/09 05:25:10;;;;;;;43.67;23.27;;;1.70;99.90;;;;;;4893465;29;38462;-80
2023/03/09 05:27:36;;;;;;;40.40;23.57;;;1.60;99.90;;;;;;4910672;29;38336;-80
2023/03/09 05:30:03;;;;;;;37.43;22.30;;;1.70;99.90;;;;;;4892226;29;37060;-80
2023/03/09 05:32:29;;;;;;;43.70;23.43;;;1.70;99.90;;;;;;4911930;29;38481;-78
2023/03/09 05:34:57;;;;;;;40.90;24.57;;;1.70;99.90;;;;;;4893469;29;40163;-78
2023/03/09 05:37:23;;;;;;;42.60;24.03;;;1.70;99.90;;;;;;4890667;29;37368;-78
2023/03/09 05:39:51;;;;;;;43.30;25.00;;;1.70;99.90;;;;;;4907109;29;20044;-78
2023/03/09 05:42:17;;;;;;;47.00;24.47;;;1.70;99.90;;;;;;4897095;29;37227;-77
2023/03/09 05:44:43;;;;;;;41.67;24.13;;;1.70;99.90;;;;;;4895542;29;37825;-78
2023/03/09 05:47:09;;;;;;;39.00;22.83;;;1.70;99.90;;;;;;4893456;29;38746;-78
2023/03/09 05:49:35;;;;;;;39.27;23.07;;;1.70;99.90;;;;;;4898808;29;35777;-77
2023/03/09 05:52:02;;;;;;;42.13;24.87;;;1.80;99.90;;;;;;4912063;29;38782;-78
2023/03/09 05:54:28;;;;;;;46.70;25.57;;;1.80;99.90;;;;;;4894189;29;38479;-77
2023/03/09 05:56:54;;;;;;;43.20;22.67;;;1.70;99.90;;;;;;4910128;29;39721;-77
2023/03/09 05:59:21;;;;;;;41.53;23.33;;;1.70;99.90;;;;;;4912713;29;37490;-78
2023/03/09 06:01:47;;;;;;;45.77;24.43;;;1.70;99.90;;;;;;4896414;29;38547;-78
2023/03/09 06:04:13;;;;;;;42.00;24.40;;;1.70;99.90;;;;;;4900946;29;37687;-77
2023/03/09 06:06:39;;;;;;;40.13;22.90;;;1.70;99.90;;;;;;4912904;28;38449;-78
2023/03/09 06:09:05;;;;;;;42.30;23.07;;;1.70;99.90;;;;;;4921703;28;36719;-78
2023/03/09 06:11:31;;;;;;;41.93;23.63;;;1.70;99.90;;;;;;4914232;29;37674;-77
2023/03/09 06:13:57;;;;;;;41.07;23.17;;;1.70;99.90;;;;;;4933056;28;38319;-78
2023/03/09 06:16:24;;;;;;;41.00;23.00;;;1.70;99.90;;;;;;4929530;28;38517;-77
2023/03/09 06:18:50;;;;;;;39.70;22.97;;;1.70;99.90;;;;;;4914555;28;37186;-76
2023/03/09 06:21:16;;;;;;;37.60;22.27;;;1.70;99.90;;;;;;4924786;28;38403;-76
2023/03/09 06:23:42;;;;;;;43.07;24.87;;;1.80;99.90;;;;;;4900529;29;37976;-77
2023/03/09 06:26:11;;;;;;;41.80;24.53;;;1.80;99.90;;;;;;4923780;28;40409;-76
2023/03/09 06:28:37;;;;;;;39.87;22.47;;;1.80;99.90;;;;;;4925647;28;36265;-78
2023/03/09 06:31:12;;;;;;;43.10;23.83;;;1.70;99.90;;;;;;4926721;28;38697;-77
2023/03/09 06:33:43;;;;;;;42.47;23.27;;;1.80;99.90;;;;;;4902552;29;37907;-77
2023/03/09 06:36:10;;;;;;;39.80;22.27;;;1.70;99.90;;;;;;4914524;29;38652;-78
2023/03/09 06:38:37;;;;;;;36.70;21.37;;;1.70;99.90;;;;;;4930633;28;37590;-77
2023/03/09 06:41:03;;;;;;;46.10;25.50;;;1.70;99.90;;;;;;4922627;28;39372;-77
2023/03/09 06:43:32;;;;;;;44.83;23.17;;;1.80;99.90;;;;;;4944501;28;39031;-77
2023/03/09 06:45:58;;;;;;;45.73;24.87;;;1.80;99.90;;;;;;4909816;28;37526;-77
2023/03/09 06:48:24;;;;;;;46.63;23.73;;;1.80;99.90;;;;;;4910746;29;37291;-77
2023/03/09 06:50:50;;;;;;;42.70;23.87;;;1.80;99.90;;;;;;4903498;28;37153;-77
2023/03/09 06:53:16;;;;;;;43.03;22.57;;;1.80;99.90;;;;;;4895518;28;37532;-77
2023/03/09 06:55:43;;;;;;;47.97;25.57;;;1.90;99.90;;;;;;4914651;28;37287;-77
2023/03/09 06:58:09;;;;;;;52.57;25.23;;;1.90;99.90;;;;;;4915702;29;38111;-77
2023/03/09 07:00:40;;;;;;;47.13;25.80;;;1.90;99.90;;;;;;4905066;29;37909;-77
2023/03/09 07:03:12;;;;;;;47.33;24.33;;;2.00;99.90;;;;;;4900468;28;37066;-77
2023/03/09 07:05:38;;;;;;;49.13;24.25;;;2.00;99.90;;;;;;4901099;29;37241;-76
2023/03/09 07:08:04;;;;;;;42.17;23.70;;;2.00;99.90;;;;;;4916565;28;38016;-77
2023/03/09 07:10:31;;;;;;;38.67;23.47;;;2.00;99.90;;;;;;4901559;28;37595;-76
2023/03/09 07:12:57;;;;;;;43.20;24.00;;;2.00;99.90;;;;;;4906935;28;37492;-77
2023/03/09 07:15:23;;;;;;;44.60;23.93;;;2.00;99.90;;;;;;4929257;28;38620;-76
2023/03/09 07:17:49;;;;;;;39.07;23.17;;;2.00;99.90;;;;;;4923891;28;37493;-76
2023/03/09 07:20:15;;;;;;;40.80;23.93;;;2.10;99.90;;;;;;4911474;28;38367;-77
2023/03/09 07:22:42;;;;;;;40.40;24.17;;;2.10;99.90;;;;;;4911241;28;39434;-76
2023/03/09 07:25:08;;;;;;;37.47;21.63;;;2.10;99.90;;;;;;4891911;28;37450;-76
2023/03/09 07:27:34;;;;;;;41.27;24.40;;;2.10;99.90;;;;;;4891207;28;36639;-76
2023/03/09 07:30:00;;;;;;;37.03;22.57;;;2.20;99.90;;;;;;4891910;29;37999;-78
2023/03/09 07:32:27;;;;;;;37.33;22.27;;;2.20;99.90;;;;;;4908556;29;37783;-77
2023/03/09 07:34:53;;;;;;;37.87;23.10;;;2.20;99.90;;;;;;4903665;29;37536;-79
2023/03/09 07:37:19;;;;;;;35.13;20.93;;;2.30;99.90;;;;;;4913495;28;38086;-79
2023/03/09 07:39:45;;;;;;;39.00;22.07;;;2.20;99.90;;;;;;4898717;29;37970;-80
2023/03/09 07:42:11;;;;;;;38.87;21.57;;;2.30;99.90;;;;;;4898478;29;37757;-79
2023/03/09 07:44:37;;;;;;;36.10;21.93;;;2.30;99.90;;;;;;4896686;29;38274;-79
2023/03/09 07:47:03;;;;;;;38.37;23.40;;;2.30;99.90;;;;;;4915768;28;37571;-79
2023/03/09 07:49:33;;;;;;;40.87;23.17;;;2.40;99.90;;;;;;4908014;29;38220;-81
2023/03/09 07:51:59;;;;;;;39.80;23.37;;;2.40;99.90;;;;;;4914897;29;38543;-80
2023/03/09 07:54:25;;;;;;;39.73;22.20;;;2.50;99.90;;;;;;4936566;23;38775;-79
2023/03/09 07:56:51;;;;;;;40.70;23.27;;;2.60;99.90;;;;;;4894881;29;35621;-79
2023/03/09 07:59:19;;;;;;;36.40;22.13;;;2.70;99.90;;;;;;4898033;29;37660;-79
2023/03/09 08:01:45;;;;;;;42.30;23.90;;;2.70;99.90;;;;;;4900311;29;37913;-79
2023/03/09 08:04:13;;;;;;;40.73;23.70;;;2.80;99.90;;;;;;4900854;29;37583;-79
2023/03/09 08:06:40;;;;;;;43.37;24.23;;;2.80;99.90;;;;;;4900771;29;36484;-81
2023/03/09 08:09:12;;;;;;;40.30;22.37;;;2.80;99.90;;;;;;4897710;29;39058;-79
2023/03/09 08:11:38;;;;;;;39.63;23.37;;;2.80;99.90;;;;;;4912267;29;38776;-80
2023/03/09 08:14:04;;;;;;;41.47;23.83;;;2.80;99.90;;;;;;4895031;29;37566;-79
2023/03/09 08:16:31;;;;;;;41.60;23.73;;;3.00;99.90;;;;;;4892549;29;37809;-79
2023/03/09 08:18:57;;;;;;;41.13;22.90;;;3.10;99.90;;;;;;4895679;29;37906;-79
2023/03/09 08:21:23;;;;;;;39.67;23.27;;;3.00;99.90;;;;;;4900019;29;37584;-79
2023/03/09 08:23:50;;;;;;;39.93;22.37;;;3.10;99.90;;;;;;4895080;29;37848;-80
2023/03/09 08:26:17;;;;;;;40.40;23.57;;;3.10;99.90;;;;;;4909062;29;37198;-79
2023/03/09 08:28:46;;;;;;;35.60;22.53;;;3.10;99.90;;;;;;4898141;29;38158;-79
2023/03/09 08:31:16;;;;;;;37.13;21.57;;;3.20;99.90;;;;;;4889050;29;40903;-80
2023/03/09 08:33:43;;;;;;;36.43;22.27;;;3.30;99.90;;;;;;4893657;29;39148;-78
2023/03/09 08:36:18;;;;;;;34.53;21.33;;;3.30;99.90;;;;;;4890535;29;35708;-81
2023/03/09 08:38:46;;;;;;;36.43;21.80;;;3.20;99.90;;;;;;4892614;29;39593;-80
2023/03/09 08:41:12;;;;;;;35.87;22.40;;;3.30;99.90;;;;;;4893287;29;39505;-80
2023/03/09 08:43:38;;;;;;;38.07;23.77;;;3.50;99.90;;;;;;4892137;29;39026;-81
2023/03/09 08:46:05;;;;;;;36.67;22.43;;;3.50;99.90;;;;;;4892685;29;35992;-82
2023/03/09 08:48:31;;;;;;;36.47;22.20;;;3.50;99.90;;;;;;4889282;29;41628;-80
2023/03/09 08:51:01;;;;;;;37.97;22.43;;;3.60;99.90;;;;;;4893799;29;39383;-80
2023/03/09 08:53:27;;;;;;;32.13;21.57;;;3.80;99.90;;;;;;4908691;29;48396;-81
2023/03/09 08:55:53;;;;;;;36.00;22.17;;;3.70;99.90;;;;;;4874886;29;36361;-78
2023/03/09 08:58:19;;;;;;;35.30;22.27;;;3.70;99.90;;;;;;4871456;29;37914;-80
2023/03/09 09:00:47;;;;;;;34.47;21.47;;;3.60;99.90;;;;;;4868381;29;37823;-80
2023/03/09 09:03:14;;;;;;;35.20;22.93;;;3.60;99.90;;;;;;4871392;29;39614;-80
2023/03/09 09:05:40;;;;;;;38.37;22.20;;;3.50;99.90;;;;;;4870901;29;37426;-80
2023/03/09 09:08:06;;;;;;;37.80;23.23;;;3.70;99.90;;;;;;4871767;29;38907;-79
2023/03/09 09:10:34;;;;;;;38.37;23.60;;;4.00;99.90;;;;;;4875425;29;40613;-80
2023/03/09 09:13:01;;;;;;;38.23;22.70;;;4.20;99.90;;;;;;4876308;29;38088;-79
2023/03/09 09:15:27;;;;;;;36.83;23.40;;;4.00;99.90;;;;;;4870074;29;47274;-79
2023/03/09 09:17:54;;;;;;;38.50;22.67;;;3.80;99.90;;;;;;4871883;29;40099;-79
2023/03/09 09:20:20;;;;;;;32.87;21.57;;;3.90;99.90;;;;;;4870074;29;39021;-79
2023/03/09 09:22:46;;;;;;;37.13;22.00;;;4.00;99.90;;;;;;4865525;29;38788;-79
2023/03/09 09:25:12;;;;;;;36.90;22.50;;;4.00;99.90;;;;;;4871581;29;37563;-79
2023/03/09 09:27:39;;;;;;;37.10;22.33;;;4.20;99.90;;;;;;4867210;29;39644;-79
2023/03/09 09:30:06;;;;;;;39.50;23.53;;;4.20;99.90;;;;;;4868634;29;40049;-79
2023/03/09 09:32:32;;;;;;;35.77;23.13;;;4.20;99.90;;;;;;4870333;29;48269;-78
2023/03/09 09:34:59;;;;;;;37.10;23.33;;;4.30;99.90;;;;;;4874735;29;38172;-79
2023/03/09 09:37:28;;;;;;;39.17;23.30;;;4.10;99.90;;;;;;4872625;29;39666;-78
2023/03/09 09:39:54;;;;;;;36.20;22.07;;;4.10;99.90;;;;;;4875687;29;38866;-79
2023/03/09 09:42:34;;;;;;;38.50;23.07;;;4.10;99.90;;;;;;4866124;29;39654;-79
2023/03/09 09:45:05;;;;;;;37.87;23.57;;;4.10;99.90;;;;;;4867295;29;38002;-79
2023/03/09 09:47:32;;;;;;;40.70;23.40;;;4.20;99.90;;;;;;4873154;29;39075;-79
2023/03/09 09:50:01;;;;;;;39.40;24.17;;;4.30;99.90;;;;;;4873625;29;39501;-79
2023/03/09 09:52:47;;;;;;;41.17;25.10;;;4.10;99.90;;;;;;4880166;29;37436;-79
2023/03/09 09:55:24;;;;;;;39.13;24.03;;;4.30;99.90;;;;;;4894387;29;37174;-80
2023/03/09 09:58:21;;;;;;;38.80;24.30;;;4.30;99.90;;;;;;4902193;29;39295;-80
2023/03/09 10:00:52;;;;;;;38.13;23.63;;;4.30;99.90;;;;;;4894218;29;47056;-78
2023/03/09 10:03:25;;;;;;;38.30;24.47;;;4.40;99.90;;;;;;4908355;29;38925;-81
2023/03/09 10:05:58;;;;;;;40.92;25.83;;;4.80;99.90;;;;;;4914217;29;37244;-79
2023/03/09 10:09:17;;;;;;;37.53;23.53;;;4.50;99.90;;;;;;4899763;29;40280;-78
2023/03/09 10:11:48;;;;;;;37.27;22.57;;;4.50;99.90;;;;;;4819182;29;47163;-78
2023/03/09 10:14:48;;;;;;;39.70;23.97;;;4.60;99.90;;;;;;4835374;29;38958;-78
2023/03/09 10:17:23;;;;;;;34.37;22.73;;;4.30;99.90;;;;;;4879326;29;36405;-79
2023/03/09 10:19:51;;;;;;;37.00;24.07;;;4.30;99.90;;;;;;4902036;29;38156;-79
2023/03/09 10:22:24;;;;;;;38.97;23.93;;;4.00;99.90;;;;;;4893411;29;37711;-78
2023/03/09 10:24:52;;;;;;;38.73;24.30;;;3.90;99.90;;;;;;4894879;29;36823;-78
2023/03/09 10:27:49;;;;;;;40.27;24.60;;;3.90;99.90;;;;;;4888302;29;37285;-78
2023/03/09 10:30:56;;;;;;;38.30;23.90;;;4.10;99.90;;;;;;4900603;29;37521;-79
2023/03/09 10:34:16;;;;;;;39.03;23.37;;;3.90;99.90;;;;;;4875963;29;37836;-78
2023/03/09 10:37:00;;;;;;;40.43;23.97;;;3.90;99.90;;;;;;4835079;29;48027;-79
2023/03/09 10:39:34;;;;;;;43.63;23.97;;;3.90;99.90;;;;;;4900982;29;38054;-79
2023/03/09 10:42:23;;;;;;;40.83;25.23;;;3.90;99.90;;;;;;4911574;29;38611;-79
2023/03/09 10:45:16;;;;;;;40.03;23.30;;;3.80;99.90;;;;;;4894824;29;46924;-78
2023/03/09 10:48:09;;;;;;;38.72;23.35;;;3.70;99.90;;;;;;4911750;29;48758;-78
2023/03/09 10:50:42;;;;;;;45.85;24.35;;;3.50;99.90;;;;;;4897884;29;46122;-79
2023/03/09 10:53:34;;;;;;;41.67;25.70;;;3.40;99.90;;;;;;4887335;29;39962;-78
2023/03/09 10:56:20;;;;;;;44.20;25.60;;;3.50;99.90;;;;;;4895697;29;39168;-79
2023/03/09 10:59:07;;;;;;;47.53;27.97;;;3.40;99.90;;;;;;4913349;29;48019;-79
2023/03/09 11:01:38;;;;;;;44.57;25.77;;;3.30;99.90;;;;;;4890777;29;47117;-80
2023/03/09 11:04:22;;;;;;;53.93;28.07;;;3.30;99.90;;;;;;4894525;29;39431;-79
2023/03/09 11:06:49;;;;;;;47.10;26.07;;;3.20;99.90;;;;;;4904117;29;37265;-79
2023/03/09 11:09:47;;;;;;;42.20;25.50;;;3.10;99.90;;;;;;4907905;29;37135;-79
2023/03/09 11:12:36;;;;;;;52.90;26.77;;;3.10;99.90;;;;;;4882251;29;37425;-79
2023/03/09 11:15:14;;;;;;;47.60;26.87;;;3.00;99.90;;;;;;4913138;29;39536;-79
2023/03/09 11:17:46;;;;;;;50.20;27.33;;;3.20;99.90;;;;;;4884607;29;47941;-78
2023/03/09 11:20:19;;;;;;;47.80;26.33;;;3.10;99.90;;;;;;4887983;29;37937;-78
2023/03/09 11:22:50;;;;;;;53.42;27.85;;;3.30;99.90;;;;;;4904792;29;36595;-79
2023/03/09 11:25:20;;;;;;;46.88;27.65;;;3.30;99.90;;;;;;4909679;29;39405;-79
2023/03/09 11:27:53;;;;;;;50.27;27.40;;;3.20;99.90;;;;;;4892984;29;40109;-78
2023/03/09 11:30:25;;;;;;;48.77;28.60;;;3.00;99.90;;;;;;4889740;29;37889;-79
2023/03/09 11:32:53;;;;;;;57.07;31.27;;;2.90;99.90;;;;;;4898411;29;38275;-79
2023/03/09 11:35:23;;;;;;;50.53;27.40;;;2.90;99.90;;;;;;4890419;29;39099;-78
2023/03/09 11:38:04;;;;;;;47.83;26.93;;;2.90;99.90;;;;;;4911056;29;38612;-78
2023/03/09 11:40:33;;;;;;;56.77;28.67;;;2.90;99.90;;;;;;4892691;29;47006;-78
2023/03/09 11:43:03;;;;;;;49.80;27.90;;;2.90;99.90;;;;;;4908721;29;36962;-78
2023/03/09 11:45:32;;;;;;;48.30;27.27;;;2.90;99.90;;;;;;4890824;29;47170;-79
2023/03/09 11:48:04;;;;;;;54.10;28.23;;;2.90;99.90;;;;;;4898158;29;40026;-78
2023/03/09 11:50:36;;;;;;;51.17;28.20;;;2.90;99.90;;;;;;4897487;29;47208;-78
2023/03/09 11:53:23;;;;;;;58.60;30.10;;;2.90;99.90;;;;;;4898526;29;38078;-79
2023/03/09 11:55:56;;;;;;;53.43;29.07;;;3.00;99.90;;;;;;4896309;29;37773;-78
2023/03/09 11:58:35;;;;;;;55.53;28.60;;;3.00;99.90;;;;;;4912835;29;42538;-79
2023/03/09 12:01:36;;;;;;;53.87;30.40;;;3.10;99.90;;;;;;4893119;29;40627;-79
2023/03/09 12:04:05;;;;;;;56.63;27.57;;;3.30;99.90;;;;;;4905477;29;38349;-79
2023/03/09 12:06:38;;;;;;;50.87;28.33;;;3.30;99.90;;;;;;4914429;29;38666;-78
2023/03/09 12:09:09;;;;;;;51.05;27.85;;;3.20;99.90;;;;;;4892774;29;37984;-78
2023/03/09 12:11:38;;;;;;;52.73;28.00;;;3.30;99.90;;;;;;4909802;29;38459;-78
2023/03/09 12:14:22;;;;;;;55.57;29.77;;;3.30;99.90;;;;;;4893525;29;38854;-78
2023/03/09 12:16:55;;;;;;;56.33;29.63;;;3.30;99.90;;;;;;4885805;29;40483;-77
2023/03/09 12:19:25;;;;;;;57.03;29.20;;;3.50;99.90;;;;;;4891635;29;39749;-78
2023/03/09 12:22:24;;;;;;;54.63;28.37;;;3.60;99.90;;;;;;4899061;29;39509;-77
2023/03/09 12:25:00;;;;;;;43.73;26.20;;;3.60;99.90;;;;;;4907866;29;48744;-79
2023/03/09 12:27:34;;;;;;;55.67;27.50;;;3.50;99.90;;;;;;4897479;29;39564;-78
2023/03/09 12:30:00;;;;;;;46.80;26.03;;;3.60;99.90;;;;;;4911360;29;38856;-78
2023/03/09 12:32:28;;;;;;;51.53;26.43;;;3.50;99.90;;;;;;4900763;29;37442;-79
2023/03/09 12:34:57;;;;;;;52.83;28.33;;;3.50;99.90;;;;;;4916262;29;37821;-79
2023/03/09 12:37:35;;;;;;;48.13;26.47;;;3.70;99.90;;;;;;4912495;29;38384;-79
2023/03/09 12:40:18;;;;;;;41.97;24.63;;;3.70;99.90;;;;;;4900827;29;37780;-78
2023/03/09 12:42:46;;;;;;;41.57;24.27;;;3.50;99.90;;;;;;4894222;29;46932;-79
2023/03/09 12:45:16;;;;;;;46.67;26.27;;;3.70;99.90;;;;;;4900915;29;38068;-79
2023/03/09 12:47:48;;;;;;;42.60;25.47;;;3.80;99.90;;;;;;4900053;29;37790;-78
2023/03/09 12:50:23;;;;;;;;;;;3.70;99.90;;;;;;4902723;29;39082;-79
2023/03/09 12:53:12;;;;;;;48.87;25.03;;;3.60;99.90;;;;;;4898196;29;38739;-81